sensor_id;sensor_type;location;lat;lon;timestamp;P1;durP1;ratioP1;P2;durP2;ratioP2
43086;SDS011;28708;52.224;6.924;2023-04-24T00:01:13;5.37;;;4.40;;
43086;SDS011;28708;52.224;6.924;2023-04-24T00:03:40;5.67;;;4.50;;
43086;SDS011;28708;52.224;6.924;2023-04-24T00:06:06;5.77;;;4.53;;
43086;SDS011;28708;52.224;6.924;2023-04-24T00:08:33;4.87;;;4.17;;
43086;SDS011;28708;52.224;6.924;2023-04-24T00:11:02;5.33;;;4.27;;
43086;SDS011;28708;52.224;6.924;2023-04-24T00:13:28;5.37;;;4.43;;
43086;SDS011;28708;52.224;6.924;2023-04-24T00:15:54;6.40;;;4.20;;
43086;SDS011;28708;52.224;6.924;2023-04-24T00:18:20;6.07;;;4.70;;
43086;SDS011;28708;52.224;6.924;2023-04-24T00:20:46;5.87;;;4.40;;
43086;SDS011;28708;52.224;6.924;2023-04-24T00:23:12;5.77;;;4.40;;
43086;SDS011;28708;52.224;6.924;2023-04-24T00:25:41;7.03;;;4.50;;
43086;SDS011;28708;52.224;6.924;2023-04-24T00:28:06;6.37;;;4.10;;
43086;SDS011;28708;52.224;6.924;2023-04-24T00:30:32;6.07;;;4.90;;
43086;SDS011;28708;52.224;6.924;2023-04-24T00:32:57;5.93;;;5.13;;
43086;SDS011;28708;52.224;6.924;2023-04-24T00:35:23;8.27;;;6.03;;
43086;SDS011;28708;52.224;6.924;2023-04-24T00:37:49;8.10;;;6.10;;
43086;SDS011;28708;52.224;6.924;2023-04-24T00:40:15;7.50;;;6.70;;
43086;SDS011;28708;52.224;6.924;2023-04-24T00:42:41;8.60;;;6.97;;
43086;SDS011;28708;52.224;6.924;2023-04-24T00:45:09;8.80;;;7.30;;
43086;SDS011;28708;52.224;6.924;2023-04-24T00:47:35;8.67;;;7.63;;
43086;SDS011;28708;52.224;6.924;2023-04-24T00:50:02;10.27;;;8.07;;
43086;SDS011;28708;52.224;6.924;2023-04-24T00:52:28;11.00;;;8.87;;
43086;SDS011;28708;52.224;6.924;2023-04-24T00:54:56;10.17;;;8.73;;
43086;SDS011;28708;52.224;6.924;2023-04-24T00:57:21;12.40;;;9.33;;
43086;SDS011;28708;52.224;6.924;2023-04-24T00:59:48;13.37;;;9.77;;
43086;SDS011;28708;52.224;6.924;2023-04-24T01:02:15;10.90;;;9.03;;
43086;SDS011;28708;52.224;6.924;2023-04-24T01:04:40;10.70;;;8.70;;
43086;SDS011;28708;52.224;6.924;2023-04-24T01:07:06;12.27;;;10.10;;
43086;SDS011;28708;52.224;6.924;2023-04-24T01:09:36;14.47;;;10.20;;
43086;SDS011;28708;52.224;6.924;2023-04-24T01:12:04;12.27;;;9.73;;
43086;SDS011;28708;52.224;6.924;2023-04-24T01:14:30;14.33;;;10.93;;
43086;SDS011;28708;52.224;6.924;2023-04-24T01:16:56;14.93;;;10.20;;
43086;SDS011;28708;52.224;6.924;2023-04-24T01:19:22;13.63;;;9.93;;
43086;SDS011;28708;52.224;6.924;2023-04-24T01:21:49;13.80;;;10.20;;
43086;SDS011;28708;52.224;6.924;2023-04-24T01:24:18;13.73;;;8.88;;
43086;SDS011;28708;52.224;6.924;2023-04-24T01:26:45;11.83;;;9.40;;
43086;SDS011;28708;52.224;6.924;2023-04-24T01:29:11;11.93;;;9.07;;
43086;SDS011;28708;52.224;6.924;2023-04-24T01:31:37;11.33;;;8.77;;
43086;SDS011;28708;52.224;6.924;2023-04-24T01:34:04;10.50;;;7.73;;
43086;SDS011;28708;52.224;6.924;2023-04-24T01:36:30;8.53;;;7.43;;
43086;SDS011;28708;52.224;6.924;2023-04-24T01:38:58;8.93;;;6.97;;
43086;SDS011;28708;52.224;6.924;2023-04-24T01:41:24;8.00;;;6.80;;
43086;SDS011;28708;52.224;6.924;2023-04-24T01:43:50;8.50;;;6.80;;
43086;SDS011;28708;52.224;6.924;2023-04-24T01:46:18;7.37;;;6.00;;
43086;SDS011;28708;52.224;6.924;2023-04-24T01:48:44;7.67;;;6.10;;
43086;SDS011;28708;52.224;6.924;2023-04-24T01:51:10;8.27;;;6.53;;
43086;SDS011;28708;52.224;6.924;2023-04-24T01:53:36;8.20;;;6.53;;
43086;SDS011;28708;52.224;6.924;2023-04-24T01:56:02;8.10;;;6.60;;
43086;SDS011;28708;52.224;6.924;2023-04-24T01:58:28;8.80;;;6.50;;
43086;SDS011;28708;52.224;6.924;2023-04-24T02:00:58;9.40;;;7.13;;
43086;SDS011;28708;52.224;6.924;2023-04-24T02:03:26;8.43;;;7.13;;
43086;SDS011;28708;52.224;6.924;2023-04-24T02:05:52;7.77;;;6.10;;
43086;SDS011;28708;52.224;6.924;2023-04-24T02:08:17;9.10;;;6.83;;
43086;SDS011;28708;52.224;6.924;2023-04-24T02:10:43;10.37;;;7.10;;
43086;SDS011;28708;52.224;6.924;2023-04-24T02:13:09;10.83;;;7.37;;
43086;SDS011;28708;52.224;6.924;2023-04-24T02:15:35;9.70;;;8.47;;
43086;SDS011;28708;52.224;6.924;2023-04-24T02:18:02;10.37;;;8.17;;
43086;SDS011;28708;52.224;6.924;2023-04-24T02:20:30;13.13;;;8.90;;
43086;SDS011;28708;52.224;6.924;2023-04-24T02:22:58;12.43;;;9.90;;
43086;SDS011;28708;52.224;6.924;2023-04-24T02:25:24;15.57;;;10.23;;
43086;SDS011;28708;52.224;6.924;2023-04-24T02:27:52;15.17;;;10.90;;
43086;SDS011;28708;52.224;6.924;2023-04-24T02:30:18;14.60;;;10.43;;
43086;SDS011;28708;52.224;6.924;2023-04-24T02:32:44;14.47;;;11.53;;
43086;SDS011;28708;52.224;6.924;2023-04-24T02:35:10;14.67;;;12.17;;
43086;SDS011;28708;52.224;6.924;2023-04-24T02:37:35;15.30;;;11.50;;
43086;SDS011;28708;52.224;6.924;2023-04-24T02:40:01;20.07;;;12.67;;
43086;SDS011;28708;52.224;6.924;2023-04-24T02:42:27;16.00;;;12.23;;
43086;SDS011;28708;52.224;6.924;2023-04-24T02:44:52;17.53;;;12.70;;
43086;SDS011;28708;52.224;6.924;2023-04-24T02:47:18;20.73;;;13.53;;
43086;SDS011;28708;52.224;6.924;2023-04-24T02:49:44;20.63;;;13.47;;
43086;SDS011;28708;52.224;6.924;2023-04-24T02:52:10;17.47;;;12.30;;
43086;SDS011;28708;52.224;6.924;2023-04-24T02:54:36;16.50;;;12.50;;
43086;SDS011;28708;52.224;6.924;2023-04-24T02:57:01;14.43;;;11.87;;
43086;SDS011;28708;52.224;6.924;2023-04-24T02:59:28;16.37;;;12.13;;
43086;SDS011;28708;52.224;6.924;2023-04-24T03:01:54;17.43;;;11.47;;
43086;SDS011;28708;52.224;6.924;2023-04-24T03:04:19;15.50;;;12.53;;
43086;SDS011;28708;52.224;6.924;2023-04-24T03:06:47;19.07;;;13.53;;
43086;SDS011;28708;52.224;6.924;2023-04-24T03:09:12;18.77;;;13.53;;
43086;SDS011;28708;52.224;6.924;2023-04-24T03:11:38;20.30;;;13.67;;
43086;SDS011;28708;52.224;6.924;2023-04-24T03:14:06;21.50;;;14.23;;
43086;SDS011;28708;52.224;6.924;2023-04-24T03:16:32;20.00;;;14.20;;
43086;SDS011;28708;52.224;6.924;2023-04-24T03:18:58;25.47;;;15.37;;
43086;SDS011;28708;52.224;6.924;2023-04-24T03:21:25;19.23;;;14.37;;
43086;SDS011;28708;52.224;6.924;2023-04-24T03:23:52;25.53;;;15.07;;
43086;SDS011;28708;52.224;6.924;2023-04-24T03:26:18;20.53;;;14.73;;
43086;SDS011;28708;52.224;6.924;2023-04-24T03:28:56;22.67;;;15.13;;
43086;SDS011;28708;52.224;6.924;2023-04-24T03:31:22;21.13;;;14.03;;
43086;SDS011;28708;52.224;6.924;2023-04-24T03:33:48;19.20;;;13.97;;
43086;SDS011;28708;52.224;6.924;2023-04-24T03:36:14;19.27;;;13.73;;
43086;SDS011;28708;52.224;6.924;2023-04-24T03:38:40;20.40;;;14.63;;
43086;SDS011;28708;52.224;6.924;2023-04-24T03:41:20;20.63;;;14.10;;
43086;SDS011;28708;52.224;6.924;2023-04-24T03:43:54;19.70;;;14.33;;
43086;SDS011;28708;52.224;6.924;2023-04-24T03:46:20;18.87;;;13.37;;
43086;SDS011;28708;52.224;6.924;2023-04-24T03:48:52;22.50;;;13.83;;
43086;SDS011;28708;52.224;6.924;2023-04-24T03:51:21;21.53;;;14.90;;
43086;SDS011;28708;52.224;6.924;2023-04-24T03:53:50;22.80;;;15.67;;
43086;SDS011;28708;52.224;6.924;2023-04-24T03:56:18;26.33;;;16.30;;
43086;SDS011;28708;52.224;6.924;2023-04-24T03:58:45;22.83;;;16.07;;
43086;SDS011;28708;52.224;6.924;2023-04-24T04:01:11;28.23;;;17.10;;
43086;SDS011;28708;52.224;6.924;2023-04-24T04:03:46;26.17;;;18.23;;
43086;SDS011;28708;52.224;6.924;2023-04-24T04:06:15;25.23;;;16.53;;
43086;SDS011;28708;52.224;6.924;2023-04-24T04:08:40;26.40;;;18.03;;
43086;SDS011;28708;52.224;6.924;2023-04-24T04:11:07;26.40;;;18.80;;
43086;SDS011;28708;52.224;6.924;2023-04-24T04:13:32;27.77;;;18.10;;
43086;SDS011;28708;52.224;6.924;2023-04-24T04:15:58;27.17;;;19.07;;
43086;SDS011;28708;52.224;6.924;2023-04-24T04:18:24;26.73;;;17.73;;
43086;SDS011;28708;52.224;6.924;2023-04-24T04:20:50;28.87;;;18.50;;
43086;SDS011;28708;52.224;6.924;2023-04-24T04:23:16;24.70;;;19.10;;
43086;SDS011;28708;52.224;6.924;2023-04-24T04:26:02;27.17;;;18.80;;
43086;SDS011;28708;52.224;6.924;2023-04-24T04:28:40;25.90;;;19.33;;
43086;SDS011;28708;52.224;6.924;2023-04-24T04:31:06;26.47;;;20.30;;
43086;SDS011;28708;52.224;6.924;2023-04-24T04:33:33;25.40;;;19.87;;
43086;SDS011;28708;52.224;6.924;2023-04-24T04:35:59;31.70;;;20.80;;
43086;SDS011;28708;52.224;6.924;2023-04-24T04:38:27;30.67;;;21.20;;
43086;SDS011;28708;52.224;6.924;2023-04-24T04:41:07;32.43;;;20.70;;
43086;SDS011;28708;52.224;6.924;2023-04-24T04:43:34;31.23;;;23.33;;
43086;SDS011;28708;52.224;6.924;2023-04-24T04:45:59;31.33;;;22.47;;
43086;SDS011;28708;52.224;6.924;2023-04-24T04:48:46;30.60;;;22.27;;
43086;SDS011;28708;52.224;6.924;2023-04-24T04:51:12;30.97;;;22.93;;
43086;SDS011;28708;52.224;6.924;2023-04-24T04:53:38;30.47;;;22.17;;
43086;SDS011;28708;52.224;6.924;2023-04-24T04:56:04;32.80;;;22.33;;
43086;SDS011;28708;52.224;6.924;2023-04-24T04:58:36;32.17;;;22.03;;
43086;SDS011;28708;52.224;6.924;2023-04-24T05:01:04;32.17;;;22.93;;
43086;SDS011;28708;52.224;6.924;2023-04-24T05:03:35;28.83;;;21.13;;
43086;SDS011;28708;52.224;6.924;2023-04-24T05:06:05;32.88;;;22.85;;
43086;SDS011;28708;52.224;6.924;2023-04-24T05:08:34;29.50;;;21.07;;
43086;SDS011;28708;52.224;6.924;2023-04-24T05:11:01;32.17;;;21.07;;
43086;SDS011;28708;52.224;6.924;2023-04-24T05:13:28;32.90;;;21.53;;
43086;SDS011;28708;52.224;6.924;2023-04-24T05:15:55;35.23;;;21.57;;
43086;SDS011;28708;52.224;6.924;2023-04-24T05:18:21;33.20;;;21.70;;
43086;SDS011;28708;52.224;6.924;2023-04-24T05:20:47;29.07;;;20.57;;
43086;SDS011;28708;52.224;6.924;2023-04-24T05:23:12;31.13;;;21.90;;
43086;SDS011;28708;52.224;6.924;2023-04-24T05:25:40;30.63;;;21.30;;
43086;SDS011;28708;52.224;6.924;2023-04-24T05:28:09;26.73;;;20.42;;
43086;SDS011;28708;52.224;6.924;2023-04-24T05:30:35;28.17;;;20.70;;
43086;SDS011;28708;52.224;6.924;2023-04-24T05:33:01;27.97;;;20.33;;
43086;SDS011;28708;52.224;6.924;2023-04-24T05:35:27;31.17;;;21.00;;
43086;SDS011;28708;52.224;6.924;2023-04-24T05:37:53;30.33;;;21.53;;
43086;SDS011;28708;52.224;6.924;2023-04-24T05:40:18;27.33;;;19.67;;
43086;SDS011;28708;52.224;6.924;2023-04-24T05:42:44;28.30;;;21.20;;
43086;SDS011;28708;52.224;6.924;2023-04-24T05:45:10;30.17;;;21.37;;
43086;SDS011;28708;52.224;6.924;2023-04-24T05:47:41;28.37;;;20.30;;
43086;SDS011;28708;52.224;6.924;2023-04-24T05:50:08;27.20;;;20.27;;
43086;SDS011;28708;52.224;6.924;2023-04-24T05:52:34;29.80;;;22.03;;
43086;SDS011;28708;52.224;6.924;2023-04-24T05:55:04;28.20;;;20.10;;
43086;SDS011;28708;52.224;6.924;2023-04-24T05:57:32;30.83;;;20.20;;
43086;SDS011;28708;52.224;6.924;2023-04-24T06:00:01;26.25;;;19.10;;
43086;SDS011;28708;52.224;6.924;2023-04-24T06:02:38;27.80;;;20.77;;
43086;SDS011;28708;52.224;6.924;2023-04-24T06:05:05;30.00;;;20.73;;
43086;SDS011;28708;52.224;6.924;2023-04-24T06:07:33;28.13;;;19.97;;
43086;SDS011;28708;52.224;6.924;2023-04-24T06:10:01;28.47;;;19.77;;
43086;SDS011;28708;52.224;6.924;2023-04-24T06:12:31;29.98;;;20.45;;
43086;SDS011;28708;52.224;6.924;2023-04-24T06:15:01;26.52;;;19.60;;
43086;SDS011;28708;52.224;6.924;2023-04-24T06:17:45;30.60;;;19.67;;
43086;SDS011;28708;52.224;6.924;2023-04-24T06:20:14;31.20;;;20.00;;
43086;SDS011;28708;52.224;6.924;2023-04-24T06:22:39;26.73;;;18.63;;
43086;SDS011;28708;52.224;6.924;2023-04-24T06:25:05;26.30;;;18.83;;
43086;SDS011;28708;52.224;6.924;2023-04-24T06:27:32;28.47;;;18.00;;
43086;SDS011;28708;52.224;6.924;2023-04-24T06:29:58;25.40;;;18.57;;
43086;SDS011;28708;52.224;6.924;2023-04-24T06:32:23;28.07;;;18.23;;
43086;SDS011;28708;52.224;6.924;2023-04-24T06:34:52;26.53;;;16.80;;
43086;SDS011;28708;52.224;6.924;2023-04-24T06:37:19;25.27;;;18.03;;
43086;SDS011;28708;52.224;6.924;2023-04-24T06:39:47;26.40;;;17.67;;
43086;SDS011;28708;52.224;6.924;2023-04-24T06:42:13;25.13;;;17.57;;
43086;SDS011;28708;52.224;6.924;2023-04-24T06:44:42;23.37;;;16.53;;
43086;SDS011;28708;52.224;6.924;2023-04-24T06:47:08;27.57;;;17.43;;
43086;SDS011;28708;52.224;6.924;2023-04-24T06:49:35;25.13;;;15.70;;
43086;SDS011;28708;52.224;6.924;2023-04-24T06:52:04;22.00;;;16.45;;
43086;SDS011;28708;52.224;6.924;2023-04-24T06:54:30;22.53;;;16.00;;
43086;SDS011;28708;52.224;6.924;2023-04-24T06:56:57;23.07;;;16.03;;
43086;SDS011;28708;52.224;6.924;2023-04-24T06:59:24;23.00;;;15.47;;
43086;SDS011;28708;52.224;6.924;2023-04-24T07:01:50;25.37;;;17.17;;
43086;SDS011;28708;52.224;6.924;2023-04-24T07:04:16;19.27;;;14.03;;
43086;SDS011;28708;52.224;6.924;2023-04-24T07:06:42;23.13;;;14.70;;
43086;SDS011;28708;52.224;6.924;2023-04-24T07:09:08;21.80;;;13.37;;
43086;SDS011;28708;52.224;6.924;2023-04-24T07:11:34;18.40;;;13.40;;
43086;SDS011;28708;52.224;6.924;2023-04-24T07:14:02;18.67;;;13.40;;
43086;SDS011;28708;52.224;6.924;2023-04-24T07:16:28;18.10;;;12.50;;
43086;SDS011;28708;52.224;6.924;2023-04-24T07:18:55;16.87;;;12.27;;
43086;SDS011;28708;52.224;6.924;2023-04-24T07:21:20;19.53;;;12.50;;
43086;SDS011;28708;52.224;6.924;2023-04-24T07:23:46;17.80;;;12.10;;
43086;SDS011;28708;52.224;6.924;2023-04-24T07:26:12;20.00;;;12.47;;
43086;SDS011;28708;52.224;6.924;2023-04-24T07:28:39;16.03;;;11.70;;
43086;SDS011;28708;52.224;6.924;2023-04-24T07:31:06;17.10;;;13.30;;
43086;SDS011;28708;52.224;6.924;2023-04-24T07:33:33;17.33;;;13.30;;
43086;SDS011;28708;52.224;6.924;2023-04-24T07:35:59;19.37;;;13.53;;
43086;SDS011;28708;52.224;6.924;2023-04-24T07:38:25;20.23;;;13.90;;
43086;SDS011;28708;52.224;6.924;2023-04-24T07:40:51;20.40;;;14.30;;
43086;SDS011;28708;52.224;6.924;2023-04-24T07:43:17;17.67;;;12.17;;
43086;SDS011;28708;52.224;6.924;2023-04-24T07:45:43;21.67;;;14.33;;
43086;SDS011;28708;52.224;6.924;2023-04-24T07:48:09;20.83;;;14.33;;
43086;SDS011;28708;52.224;6.924;2023-04-24T07:50:35;18.37;;;13.50;;
43086;SDS011;28708;52.224;6.924;2023-04-24T07:53:02;19.33;;;13.10;;
43086;SDS011;28708;52.224;6.924;2023-04-24T07:55:27;19.10;;;13.33;;
43086;SDS011;28708;52.224;6.924;2023-04-24T07:57:53;17.97;;;12.30;;
43086;SDS011;28708;52.224;6.924;2023-04-24T08:00:19;15.97;;;12.30;;
43086;SDS011;28708;52.224;6.924;2023-04-24T08:02:45;15.43;;;12.00;;
43086;SDS011;28708;52.224;6.924;2023-04-24T08:05:10;15.20;;;12.33;;
43086;SDS011;28708;52.224;6.924;2023-04-24T08:07:36;15.47;;;12.10;;
43086;SDS011;28708;52.224;6.924;2023-04-24T08:10:02;16.93;;;13.03;;
43086;SDS011;28708;52.224;6.924;2023-04-24T08:12:29;15.13;;;12.10;;
43086;SDS011;28708;52.224;6.924;2023-04-24T08:14:54;16.83;;;11.17;;
43086;SDS011;28708;52.224;6.924;2023-04-24T08:17:20;14.80;;;11.60;;
43086;SDS011;28708;52.224;6.924;2023-04-24T08:19:46;13.23;;;10.10;;
43086;SDS011;28708;52.224;6.924;2023-04-24T08:22:16;13.77;;;9.48;;
43086;SDS011;28708;52.224;6.924;2023-04-24T08:24:42;17.47;;;10.37;;
43086;SDS011;28708;52.224;6.924;2023-04-24T08:27:09;13.57;;;10.37;;
43086;SDS011;28708;52.224;6.924;2023-04-24T08:29:35;12.87;;;9.43;;
43086;SDS011;28708;52.224;6.924;2023-04-24T08:32:01;13.13;;;9.70;;
43086;SDS011;28708;52.224;6.924;2023-04-24T08:34:27;14.37;;;9.77;;
43086;SDS011;28708;52.224;6.924;2023-04-24T08:36:52;13.33;;;9.33;;
43086;SDS011;28708;52.224;6.924;2023-04-24T08:39:18;12.27;;;9.00;;
43086;SDS011;28708;52.224;6.924;2023-04-24T08:41:44;11.20;;;8.50;;
43086;SDS011;28708;52.224;6.924;2023-04-24T08:44:10;12.20;;;9.17;;
43086;SDS011;28708;52.224;6.924;2023-04-24T08:46:39;14.10;;;9.77;;
43086;SDS011;28708;52.224;6.924;2023-04-24T08:49:05;11.90;;;9.03;;
43086;SDS011;28708;52.224;6.924;2023-04-24T08:51:31;12.67;;;8.70;;
43086;SDS011;28708;52.224;6.924;2023-04-24T08:53:57;9.33;;;6.60;;
43086;SDS011;28708;52.224;6.924;2023-04-24T08:56:23;9.43;;;7.27;;
43086;SDS011;28708;52.224;6.924;2023-04-24T08:58:50;12.03;;;6.50;;
43086;SDS011;28708;52.224;6.924;2023-04-24T09:01:18;10.67;;;7.53;;
43086;SDS011;28708;52.224;6.924;2023-04-24T09:03:45;10.83;;;7.27;;
43086;SDS011;28708;52.224;6.924;2023-04-24T09:06:14;10.50;;;7.45;;
43086;SDS011;28708;52.224;6.924;2023-04-24T09:08:42;12.27;;;7.80;;
43086;SDS011;28708;52.224;6.924;2023-04-24T09:11:10;11.33;;;6.97;;
43086;SDS011;28708;52.224;6.924;2023-04-24T09:13:37;9.17;;;6.80;;
43086;SDS011;28708;52.224;6.924;2023-04-24T09:16:02;10.43;;;6.40;;
43086;SDS011;28708;52.224;6.924;2023-04-24T09:18:28;8.37;;;5.83;;
43086;SDS011;28708;52.224;6.924;2023-04-24T09:21:01;8.90;;;5.93;;
43086;SDS011;28708;52.224;6.924;2023-04-24T09:23:30;7.73;;;5.43;;
43086;SDS011;28708;52.224;6.924;2023-04-24T09:25:56;7.33;;;4.90;;
43086;SDS011;28708;52.224;6.924;2023-04-24T09:28:29;6.00;;;4.00;;
43086;SDS011;28708;52.224;6.924;2023-04-24T09:31:06;5.07;;;3.30;;
43086;SDS011;28708;52.224;6.924;2023-04-24T09:33:35;7.00;;;3.67;;
43086;SDS011;28708;52.224;6.924;2023-04-24T09:36:02;8.10;;;4.00;;
43086;SDS011;28708;52.224;6.924;2023-04-24T09:38:32;5.63;;;4.07;;
43086;SDS011;28708;52.224;6.924;2023-04-24T09:40:59;15.13;;;4.87;;
43086;SDS011;28708;52.224;6.924;2023-04-24T09:43:28;9.60;;;6.27;;
43086;SDS011;28708;52.224;6.924;2023-04-24T09:45:55;15.97;;;8.43;;
43086;SDS011;28708;52.224;6.924;2023-04-24T09:48:35;13.97;;;8.30;;
43086;SDS011;28708;52.224;6.924;2023-04-24T09:53:31;15.93;;;8.87;;
43086;SDS011;28708;52.224;6.924;2023-04-24T09:56:02;13.17;;;8.17;;
43086;SDS011;28708;52.224;6.924;2023-04-24T09:58:31;18.43;;;9.77;;
43086;SDS011;28708;52.224;6.924;2023-04-24T10:00:57;21.47;;;10.63;;
43086;SDS011;28708;52.224;6.924;2023-04-24T10:03:26;18.80;;;11.23;;
43086;SDS011;28708;52.224;6.924;2023-04-24T10:05:58;22.50;;;11.43;;
43086;SDS011;28708;52.224;6.924;2023-04-24T10:08:24;24.00;;;12.20;;
43086;SDS011;28708;52.224;6.924;2023-04-24T10:10:51;19.03;;;11.73;;
43086;SDS011;28708;52.224;6.924;2023-04-24T10:13:17;22.37;;;11.80;;
43086;SDS011;28708;52.224;6.924;2023-04-24T10:15:43;16.80;;;11.43;;
43086;SDS011;28708;52.224;6.924;2023-04-24T10:18:09;21.77;;;11.83;;
43086;SDS011;28708;52.224;6.924;2023-04-24T10:20:36;18.97;;;12.30;;
43086;SDS011;28708;52.224;6.924;2023-04-24T10:23:05;20.05;;;12.05;;
43086;SDS011;28708;52.224;6.924;2023-04-24T10:25:32;21.53;;;11.33;;
43086;SDS011;28708;52.224;6.924;2023-04-24T10:28:00;23.70;;;11.57;;
43086;SDS011;28708;52.224;6.924;2023-04-24T10:30:27;20.17;;;11.90;;
43086;SDS011;28708;52.224;6.924;2023-04-24T10:32:54;14.97;;;9.80;;
43086;SDS011;28708;52.224;6.924;2023-04-24T10:35:20;18.30;;;10.50;;
43086;SDS011;28708;52.224;6.924;2023-04-24T10:37:50;20.20;;;9.10;;
43086;SDS011;28708;52.224;6.924;2023-04-24T10:40:25;16.53;;;9.63;;
43086;SDS011;28708;52.224;6.924;2023-04-24T10:42:53;17.43;;;9.47;;
43086;SDS011;28708;52.224;6.924;2023-04-24T10:45:20;20.00;;;9.57;;
43086;SDS011;28708;52.224;6.924;2023-04-24T10:50:27;17.40;;;8.05;;
43086;SDS011;28708;52.224;6.924;2023-04-24T10:53:04;17.07;;;8.77;;
43086;SDS011;28708;52.224;6.924;2023-04-24T10:55:41;20.00;;;9.23;;
43086;SDS011;28708;52.224;6.924;2023-04-24T10:58:42;19.67;;;9.83;;
43086;SDS011;28708;52.224;6.924;2023-04-24T11:01:23;16.23;;;8.80;;
43086;SDS011;28708;52.224;6.924;2023-04-24T11:03:57;15.47;;;7.60;;
43086;SDS011;28708;52.224;6.924;2023-04-24T11:06:30;22.43;;;7.67;;
43086;SDS011;28708;52.224;6.924;2023-04-24T11:09:04;12.33;;;6.23;;
43086;SDS011;28708;52.224;6.924;2023-04-24T11:11:37;12.73;;;5.27;;
43086;SDS011;28708;52.224;6.924;2023-04-24T11:14:08;12.20;;;5.20;;
43086;SDS011;28708;52.224;6.924;2023-04-24T11:16:53;11.23;;;4.97;;
43086;SDS011;28708;52.224;6.924;2023-04-24T11:19:25;12.63;;;4.80;;
43086;SDS011;28708;52.224;6.924;2023-04-24T11:22:13;13.67;;;4.63;;
43086;SDS011;28708;52.224;6.924;2023-04-24T11:24:40;10.20;;;4.90;;
43086;SDS011;28708;52.224;6.924;2023-04-24T11:27:20;10.30;;;4.70;;
43086;SDS011;28708;52.224;6.924;2023-04-24T11:29:47;18.80;;;4.43;;
43086;SDS011;28708;52.224;6.924;2023-04-24T11:32:26;14.47;;;4.80;;
43086;SDS011;28708;52.224;6.924;2023-04-24T11:35:00;10.77;;;3.88;;
43086;SDS011;28708;52.224;6.924;2023-04-24T11:37:29;18.03;;;5.27;;
43086;SDS011;28708;52.224;6.924;2023-04-24T11:40:02;16.10;;;5.40;;
43086;SDS011;28708;52.224;6.924;2023-04-24T11:42:36;18.97;;;5.53;;
43086;SDS011;28708;52.224;6.924;2023-04-24T11:45:09;22.90;;;5.50;;
43086;SDS011;28708;52.224;6.924;2023-04-24T11:47:39;16.30;;;4.73;;
43086;SDS011;28708;52.224;6.924;2023-04-24T11:50:06;15.30;;;4.73;;
43086;SDS011;28708;52.224;6.924;2023-04-24T11:52:36;18.27;;;4.57;;
43086;SDS011;28708;52.224;6.924;2023-04-24T11:55:03;17.67;;;5.07;;
43086;SDS011;28708;52.224;6.924;2023-04-24T11:57:31;18.03;;;4.63;;
43086;SDS011;28708;52.224;6.924;2023-04-24T12:00:01;18.63;;;4.82;;
43086;SDS011;28708;52.224;6.924;2023-04-24T12:02:37;14.13;;;4.17;;
43086;SDS011;28708;52.224;6.924;2023-04-24T12:05:03;12.67;;;4.13;;
43086;SDS011;28708;52.224;6.924;2023-04-24T12:07:28;11.00;;;3.67;;
43086;SDS011;28708;52.224;6.924;2023-04-24T12:09:55;10.10;;;3.70;;
43086;SDS011;28708;52.224;6.924;2023-04-24T12:12:24;13.10;;;4.47;;
43086;SDS011;28708;52.224;6.924;2023-04-24T12:14:53;15.07;;;4.33;;
43086;SDS011;28708;52.224;6.924;2023-04-24T12:17:24;12.10;;;4.10;;
43086;SDS011;28708;52.224;6.924;2023-04-24T12:20:05;9.20;;;3.57;;
43086;SDS011;28708;52.224;6.924;2023-04-24T12:25:20;10.37;;;4.00;;
43086;SDS011;28708;52.224;6.924;2023-04-24T12:30:28;10.30;;;3.73;;
43086;SDS011;28708;52.224;6.924;2023-04-24T12:32:56;12.10;;;3.23;;
43086;SDS011;28708;52.224;6.924;2023-04-24T12:35:23;9.03;;;2.77;;
43086;SDS011;28708;52.224;6.924;2023-04-24T12:37:50;12.40;;;3.33;;
43086;SDS011;28708;52.224;6.924;2023-04-24T12:40:17;9.10;;;3.30;;
43086;SDS011;28708;52.224;6.924;2023-04-24T12:45:10;10.03;;;3.10;;
43086;SDS011;28708;52.224;6.924;2023-04-24T12:47:37;13.00;;;3.20;;
43086;SDS011;28708;52.224;6.924;2023-04-24T12:50:04;15.33;;;4.20;;
43086;SDS011;28708;52.224;6.924;2023-04-24T12:52:31;11.40;;;3.43;;
43086;SDS011;28708;52.224;6.924;2023-04-24T12:54:57;14.13;;;3.53;;
43086;SDS011;28708;52.224;6.924;2023-04-24T12:57:24;12.93;;;4.33;;
43086;SDS011;28708;52.224;6.924;2023-04-24T12:59:52;13.50;;;3.43;;
43086;SDS011;28708;52.224;6.924;2023-04-24T13:02:21;11.17;;;3.43;;
43086;SDS011;28708;52.224;6.924;2023-04-24T13:04:47;9.63;;;3.50;;
43086;SDS011;28708;52.224;6.924;2023-04-24T13:07:13;8.40;;;2.70;;
43086;SDS011;28708;52.224;6.924;2023-04-24T13:09:43;10.20;;;3.43;;
43086;SDS011;28708;52.224;6.924;2023-04-24T13:12:10;7.90;;;2.97;;
43086;SDS011;28708;52.224;6.924;2023-04-24T13:14:37;8.87;;;2.77;;
43086;SDS011;28708;52.224;6.924;2023-04-24T13:17:03;11.97;;;3.30;;
43086;SDS011;28708;52.224;6.924;2023-04-24T13:19:30;8.67;;;2.90;;
43086;SDS011;28708;52.224;6.924;2023-04-24T13:22:01;8.30;;;2.50;;
43086;SDS011;28708;52.224;6.924;2023-04-24T13:24:27;9.80;;;3.20;;
43086;SDS011;28708;52.224;6.924;2023-04-24T13:26:53;9.53;;;3.53;;
43086;SDS011;28708;52.224;6.924;2023-04-24T13:29:19;13.27;;;3.93;;
43086;SDS011;28708;52.224;6.924;2023-04-24T13:31:45;11.80;;;3.50;;
43086;SDS011;28708;52.224;6.924;2023-04-24T13:34:12;10.43;;;3.47;;
43086;SDS011;28708;52.224;6.924;2023-04-24T13:36:38;7.10;;;2.43;;
43086;SDS011;28708;52.224;6.924;2023-04-24T13:39:04;5.00;;;1.97;;
43086;SDS011;28708;52.224;6.924;2023-04-24T13:41:31;6.87;;;2.33;;
43086;SDS011;28708;52.224;6.924;2023-04-24T13:43:58;13.33;;;3.47;;
43086;SDS011;28708;52.224;6.924;2023-04-24T13:46:23;8.20;;;2.43;;
43086;SDS011;28708;52.224;6.924;2023-04-24T13:48:49;11.00;;;2.60;;
43086;SDS011;28708;52.224;6.924;2023-04-24T13:51:15;6.63;;;1.63;;
43086;SDS011;28708;52.224;6.924;2023-04-24T13:53:40;8.30;;;1.40;;
43086;SDS011;28708;52.224;6.924;2023-04-24T13:56:06;2.90;;;1.20;;
43086;SDS011;28708;52.224;6.924;2023-04-24T13:58:32;5.50;;;1.50;;
43086;SDS011;28708;52.224;6.924;2023-04-24T14:00:58;4.53;;;1.70;;
43086;SDS011;28708;52.224;6.924;2023-04-24T14:03:24;5.80;;;1.70;;
43086;SDS011;28708;52.224;6.924;2023-04-24T14:05:49;5.03;;;1.60;;
43086;SDS011;28708;52.224;6.924;2023-04-24T14:08:15;4.40;;;1.40;;
43086;SDS011;28708;52.224;6.924;2023-04-24T14:10:42;2.50;;;1.10;;
43086;SDS011;28708;52.224;6.924;2023-04-24T14:13:07;6.57;;;1.60;;
43086;SDS011;28708;52.224;6.924;2023-04-24T14:15:35;5.30;;;1.13;;
43086;SDS011;28708;52.224;6.924;2023-04-24T14:18:01;4.73;;;1.23;;
43086;SDS011;28708;52.224;6.924;2023-04-24T14:20:26;7.07;;;1.67;;
43086;SDS011;28708;52.224;6.924;2023-04-24T14:22:52;4.60;;;1.53;;
43086;SDS011;28708;52.224;6.924;2023-04-24T14:25:18;5.70;;;1.60;;
43086;SDS011;28708;52.224;6.924;2023-04-24T14:27:44;6.77;;;1.60;;
43086;SDS011;28708;52.224;6.924;2023-04-24T14:30:10;5.73;;;1.30;;
43086;SDS011;28708;52.224;6.924;2023-04-24T14:32:38;4.73;;;1.20;;
43086;SDS011;28708;52.224;6.924;2023-04-24T14:35:04;4.77;;;1.50;;
43086;SDS011;28708;52.224;6.924;2023-04-24T14:37:31;6.17;;;1.10;;
43086;SDS011;28708;52.224;6.924;2023-04-24T14:39:57;4.80;;;1.37;;
43086;SDS011;28708;52.224;6.924;2023-04-24T14:42:22;3.63;;;1.17;;
43086;SDS011;28708;52.224;6.924;2023-04-24T14:44:48;5.53;;;1.60;;
43086;SDS011;28708;52.224;6.924;2023-04-24T14:47:14;8.30;;;1.50;;